Startpagina
METAR-TAF:

METAR-TAF

Vliegvelden :

Luchthaven El Salvador

El Salvador, El Salvador

breedte: 13-26N, lengte: 089-03W, hoogte: 25 m

Actueel weer

Dit bericht is 28 minuten geleden gemaakt, om 13:35 UTC
Wind 2 kt uit variabele richting
Temperatuur 29°C
Vochtigheid 70%
Druk 1010 hPa
Zicht 10 km of meer
geen wolken onder 1500 m en geen cumulonimbus

METAR: MSLP 101335Z VRB02KT CAVOK 29/23 Q1010 NOSIG RMK HZ

Tijdstip: 08:03 (14:03 UTC)

Verwachting

Dit bericht is 4 uur en het 38 minuten geleden gemaakt, om 09:25 UTC
Verwachting geldig van 10 om 12 UTC tot 11 om 12 UTC
Wind 4 kt uit het oostnoordoosten
Zicht: 8000 m
Van 10 om 1800 UTC
Wind 10 kt uit het zuidwesten
Zicht 10 km of meer
Verspreide wolken op 3000 ft
Van 11 om 0000 UTC
Wind 5 kt uit het westen
Zicht 10 km of meer
Weinig wolken op 6000 ft
Van 11 om 0300 UTC
Wind 4 kt uit het oostnoordoosten

TAF: MSLP 100925Z 1012/1112 07004KT 8000 NSC TX34/1018Z TN23/1012Z FM101800 22010KT 9999 SCT030 FM110000 27005KT 9999 FEW060 FM110300 07004KT

Waarnemingen en weersverwachtingen van meer dan 4000 vliegvelden (METAR en TAF).

De beschikbare stations zijn de gele en rode punten op de kaart.

Ga met uw muis naar het station om de naam te zien.

Klik dan om waarnemingen en weersverwachtingen te zien.

kaart wijzigen: klik op de groene knoppen met een zwart kruis om in te zoomen, op de groene knop met een streepje om uit te zoomen of op de groene pijlen voor aangrenzende kaarten.


METAR-TAF: